Time;durP1;ratioP1;P1;durP2;ratioP2;P2;SDS_P1;SDS_P2;PMS_P1;PMS_P2;Temp;Humidity;BMP_temperature;BMP_pressure;BME280_temperature;BME280_humidity;BME280_pressure;Samples;Min_cycle;Max_cycle;Signal;HPM_P1;HPM_P2
2021/08/03 00:00:03;;;;;;;2.75;0.90;;;14.40;99.90;;;;;;5094337;28;20044;-85
2021/08/03 00:02:30;;;;;;;1.75;0.60;;;14.50;99.90;;;;;;5092046;28;20154;-88
2021/08/03 00:04:59;;;;;;;1.27;0.50;;;14.50;99.90;;;;;;5094508;28;20021;-86
2021/08/03 00:07:34;;;;;;;2.55;0.60;;;14.50;99.90;;;;;;5094654;28;20111;-87
2021/08/03 00:10:05;;;;;;;1.55;0.60;;;14.50;99.90;;;;;;5094343;28;20119;-86
2021/08/03 00:12:34;;;;;;;1.48;0.70;;;14.50;99.90;;;;;;5094310;28;20098;-87
2021/08/03 00:15:05;;;;;;;1.33;0.60;;;14.50;99.90;;;;;;5095284;28;20478;-86
2021/08/03 00:17:32;;;;;;;1.00;0.60;;;14.40;99.90;;;;;;5093570;28;20056;-86
2021/08/03 00:19:59;;;;;;;2.35;0.80;;;14.40;99.90;;;;;;5095345;28;20028;-86
2021/08/03 00:22:30;;;;;;;2.00;0.80;;;14.40;99.90;;;;;;5094182;28;20062;-86
2021/08/03 00:25:03;;;;;;;1.27;0.70;;;14.40;99.90;;;;;;5094201;28;20057;-86
2021/08/03 00:27:30;;;;;;;1.23;0.70;;;14.40;99.90;;;;;;5094319;28;20024;-86
2021/08/03 00:30:00;;;;;;;2.05;0.80;;;14.30;99.90;;;;;;5077398;28;20038;-87
2021/08/03 00:32:33;;;;;;;1.92;0.80;;;14.40;99.90;;;;;;5094050;28;20414;-86
2021/08/03 00:35:06;;;;;;;2.15;0.75;;;14.30;99.90;;;;;;5093723;28;20024;-86
2021/08/03 00:37:38;;;;;;;1.65;0.50;;;14.30;99.90;;;;;;5093346;28;20101;-87
2021/08/03 00:40:09;;;;;;;1.55;0.70;;;14.20;99.90;;;;;;5094913;28;20031;-86
2021/08/03 00:42:45;;;;;;;1.48;0.60;;;14.20;99.90;;;;;;5093620;28;20035;-85
2021/08/03 00:45:16;;;;;;;1.48;0.60;;;14.20;99.90;;;;;;5093865;28;20377;-86
2021/08/03 00:47:48;;;;;;;2.15;0.82;;;14.20;99.90;;;;;;5093827;28;20020;-86
2021/08/03 00:50:17;;;;;;;1.83;0.90;;;14.20;99.90;;;;;;5093628;28;20031;-87
2021/08/03 00:52:44;;;;;;;2.10;0.75;;;14.10;99.90;;;;;;5093723;28;20032;-86
2021/08/03 00:55:16;;;;;;;1.35;0.70;;;14.10;99.90;;;;;;5093394;28;20024;-87
2021/08/03 00:57:53;;;;;;;1.75;0.70;;;14.20;99.90;;;;;;5094884;28;20053;-87
2021/08/03 01:00:24;;;;;;;1.90;0.70;;;14.10;99.90;;;;;;5093113;28;20047;-87
2021/08/03 01:03:01;;;;;;;1.92;0.75;;;14.10;99.90;;;;;;5093525;28;20031;-86
2021/08/03 01:05:40;;;;;;;3.10;0.90;;;14.10;99.90;;;;;;5094733;28;20020;-86
2021/08/03 01:08:52;;;;;;;1.75;0.70;;;14.10;99.90;;;;;;5093304;28;20093;-86
2021/08/03 01:11:48;;;;;;;1.75;0.60;;;14.10;99.90;;;;;;4995837;28;20030;-87
2021/08/03 01:15:04;;;;;;;1.38;0.63;;;14.10;99.90;;;;;;5093301;28;20032;-86
2021/08/03 01:18:15;;;;;;;0.90;0.60;;;14.10;99.90;;;;;;5011628;28;20137;-87
2021/08/03 01:21:03;;;;;;;1.13;0.60;;;14.10;99.90;;;;;;5010976;28;20141;-86
2021/08/03 01:24:26;;;;;;;1.73;0.70;;;14.10;99.90;;;;;;5090219;28;20089;-86
2021/08/03 01:27:27;;;;;;;1.77;0.70;;;14.10;99.90;;;;;;5011461;28;20058;-86
2021/08/03 01:29:57;;;;;;;1.83;0.60;;;14.10;99.90;;;;;;5011871;28;20022;-86
2021/08/03 01:32:29;;;;;;;0.98;0.60;;;14.10;99.90;;;;;;5011881;28;20437;-87
2021/08/03 01:34:59;;;;;;;1.73;0.80;;;14.00;99.90;;;;;;5011954;28;20109;-86
2021/08/03 01:37:31;;;;;;;0.93;0.50;;;14.10;99.90;;;;;;5007723;28;20043;-86
2021/08/03 01:40:12;;;;;;;1.23;0.63;;;14.10;99.90;;;;;;5092475;28;20020;-88
2021/08/03 01:42:43;;;;;;;1.35;0.80;;;14.10;99.90;;;;;;5092576;28;20024;-87
2021/08/03 01:45:11;;;;;;;1.13;0.60;;;14.10;99.90;;;;;;5092710;28;20541;-87
2021/08/03 01:47:37;;;;;;;1.35;0.70;;;14.10;99.90;;;;;;5092294;28;20031;-86
2021/08/03 01:50:06;;;;;;;1.02;0.65;;;14.00;99.90;;;;;;5092503;28;20020;-87
2021/08/03 01:52:34;;;;;;;1.63;0.80;;;13.90;99.90;;;;;;5092478;28;20024;-88
2021/08/03 01:55:00;;;;;;;0.88;0.55;;;13.90;99.90;;;;;;5092520;28;20399;-86
2021/08/03 01:57:30;;;;;;;1.67;0.80;;;13.90;99.90;;;;;;5092583;28;20031;-87
2021/08/03 02:00:01;;;;;;;1.95;0.70;;;13.80;99.90;;;;;;5092461;28;20137;-88
2021/08/03 02:02:28;;;;;;;1.70;0.70;;;13.80;99.90;;;;;;5093901;28;20023;-86
2021/08/03 02:04:57;;;;;;;1.35;0.60;;;13.70;99.90;;;;;;5092409;28;20020;-87
2021/08/03 02:07:29;;;;;;;2.50;0.70;;;13.80;99.90;;;;;;5092222;28;20027;-87
2021/08/03 02:09:59;;;;;;;2.27;0.70;;;13.80;99.90;;;;;;5093059;28;20020;-87
2021/08/03 02:12:31;;;;;;;1.20;0.75;;;13.80;99.90;;;;;;5091886;28;20490;-86
2021/08/03 02:14:59;;;;;;;2.95;0.80;;;13.80;99.90;;;;;;5093175;28;20065;-87
2021/08/03 02:17:26;;;;;;;1.42;0.57;;;13.80;99.90;;;;;;5092068;28;20087;-87
2021/08/03 02:19:56;;;;;;;1.55;0.73;;;13.80;99.90;;;;;;5091814;28;20055;-87
2021/08/03 02:22:25;;;;;;;1.10;0.70;;;13.80;99.90;;;;;;5091912;28;20479;-87
2021/08/03 02:24:57;;;;;;;2.28;0.80;;;13.80;99.90;;;;;;5091361;28;20031;-88
2021/08/03 02:27:25;;;;;;;1.30;0.70;;;13.80;99.90;;;;;;5088344;28;20107;-87
2021/08/03 02:29:59;;;;;;;1.13;0.68;;;13.70;99.90;;;;;;5091015;28;20028;-87
2021/08/03 02:32:35;;;;;;;0.73;0.50;;;13.80;99.90;;;;;;5091261;28;20357;-88
2021/08/03 02:35:30;;;;;;;1.38;0.70;;;13.70;99.90;;;;;;5092070;28;20028;-86
2021/08/03 02:38:07;;;;;;;3.42;0.60;;;13.70;99.90;;;;;;5091969;28;20031;-86
2021/08/03 02:40:33;;;;;;;1.50;0.60;;;13.70;99.90;;;;;;5077739;28;20035;-86
2021/08/03 02:43:07;;;;;;;0.60;0.40;;;13.60;99.90;;;;;;5095515;28;20024;-86
2021/08/03 02:45:39;;;;;;;1.58;0.70;;;13.70;99.90;;;;;;5095615;28;20028;-86
2021/08/03 02:48:14;;;;;;;1.20;0.60;;;13.60;99.90;;;;;;5096587;28;20107;-86
2021/08/03 02:50:47;;;;;;;0.82;0.50;;;13.60;99.90;;;;;;5095109;28;20028;-86
2021/08/03 02:53:47;;;;;;;0.90;0.60;;;13.60;99.90;;;;;;5095271;28;20024;-87
2021/08/03 02:56:19;;;;;;;0.95;0.60;;;13.50;99.90;;;;;;5095920;28;20032;-87
2021/08/03 02:58:57;;;;;;;1.23;0.60;;;13.50;99.90;;;;;;5095871;28;20016;-86
2021/08/03 03:01:30;;;;;;;1.63;0.52;;;13.50;99.90;;;;;;5095883;28;20032;-86
2021/08/03 03:04:06;;;;;;;2.00;0.68;;;13.50;99.90;;;;;;5097205;28;20012;-86
2021/08/03 03:06:40;;;;;;;1.60;0.70;;;13.60;99.90;;;;;;5095646;28;20035;-86
2021/08/03 03:09:08;;;;;;;0.68;0.50;;;13.60;99.90;;;;;;5095360;28;20074;-86
2021/08/03 03:11:37;;;;;;;1.67;0.70;;;13.50;99.90;;;;;;5095626;28;20372;-86
2021/08/03 03:14:12;;;;;;;2.13;0.70;;;13.50;99.90;;;;;;5095658;28;20034;-86
2021/08/03 03:16:41;;;;;;;1.77;0.70;;;13.50;99.90;;;;;;5094818;28;20115;-86
2021/08/03 03:19:13;;;;;;;1.00;0.70;;;13.50;99.90;;;;;;5096809;28;20070;-86
2021/08/03 03:21:47;;;;;;;2.00;0.47;;;13.50;99.90;;;;;;5096706;28;20028;-86
2021/08/03 03:24:17;;;;;;;1.17;0.60;;;13.50;99.90;;;;;;5096711;28;20061;-86
2021/08/03 03:26:44;;;;;;;1.10;0.60;;;13.50;99.90;;;;;;5095326;28;20070;-86
2021/08/03 03:29:11;;;;;;;1.20;0.70;;;13.50;99.90;;;;;;5094967;28;20069;-87
2021/08/03 03:31:47;;;;;;;2.13;0.98;;;13.50;99.90;;;;;;5096046;28;20458;-86
2021/08/03 03:34:14;;;;;;;1.58;0.63;;;13.50;99.90;;;;;;5096568;28;20046;-87
2021/08/03 03:36:47;;;;;;;1.15;0.60;;;13.40;99.90;;;;;;5095067;28;20028;-87
2021/08/03 03:39:19;;;;;;;;;;;13.40;99.90;;;;;;5095213;28;20028;-86
2021/08/03 03:41:52;;;;;;;1.63;0.75;;;13.40;99.90;;;;;;5094989;28;19912;-86
2021/08/03 03:44:24;;;;;;;1.23;0.70;;;13.40;99.90;;;;;;5095151;28;20111;-86
2021/08/03 03:46:57;;;;;;;2.65;0.73;;;13.30;99.90;;;;;;5078568;28;20036;-85
2021/08/03 03:49:32;;;;;;;2.55;0.75;;;13.30;99.90;;;;;;5094420;28;20024;-86
2021/08/03 03:52:01;;;;;;;2.00;0.80;;;13.30;99.90;;;;;;5094708;28;20058;-86
2021/08/03 03:54:40;;;;;;;1.00;0.70;;;13.30;99.90;;;;;;5094892;28;20031;-86
2021/08/03 03:57:09;;;;;;;1.33;0.80;;;13.30;99.90;;;;;;5094731;28;20464;-86
2021/08/03 03:59:45;;;;;;;1.27;0.63;;;13.30;99.90;;;;;;5094762;28;20027;-86
2021/08/03 04:02:13;;;;;;;2.33;0.85;;;13.40;99.90;;;;;;5096053;28;20487;-87
2021/08/03 04:04:43;;;;;;;1.60;0.90;;;13.30;99.90;;;;;;5094699;28;20062;-85
2021/08/03 04:07:10;;;;;;;2.30;0.80;;;13.40;99.90;;;;;;5094692;28;20077;-87
2021/08/03 04:09:41;;;;;;;2.67;0.65;;;13.40;99.90;;;;;;5095617;28;20032;-86
2021/08/03 04:12:11;;;;;;;1.35;0.80;;;13.40;99.90;;;;;;5094416;28;20113;-86
2021/08/03 04:14:40;;;;;;;1.33;0.60;;;13.40;99.90;;;;;;5094653;28;20032;-86
2021/08/03 04:17:10;;;;;;;3.28;1.13;;;13.40;99.90;;;;;;5077373;28;20048;-86
2021/08/03 04:19:38;;;;;;;1.00;0.75;;;13.40;99.90;;;;;;5094763;28;20052;-86
2021/08/03 04:22:04;;;;;;;1.08;0.68;;;13.40;99.90;;;;;;5094246;28;20050;-86
2021/08/03 04:24:29;;;;;;;1.92;0.90;;;13.40;99.90;;;;;;5094282;28;20020;-86
2021/08/03 04:27:01;;;;;;;2.03;0.93;;;13.40;99.90;;;;;;5094156;28;20028;-86
2021/08/03 04:29:30;;;;;;;4.40;0.95;;;13.40;99.90;;;;;;5094320;28;20020;-86
2021/08/03 04:31:59;;;;;;;2.80;0.80;;;13.40;99.90;;;;;;5093905;28;20051;-86
2021/08/03 04:34:28;;;;;;;2.20;0.90;;;13.50;99.90;;;;;;5092606;28;20103;-86
2021/08/03 04:36:53;;;;;;;1.80;0.85;;;13.40;99.90;;;;;;5091503;28;20035;-87
2021/08/03 04:39:19;;;;;;;1.30;0.65;;;13.40;99.90;;;;;;5092762;28;20036;-86
2021/08/03 04:41:46;;;;;;;2.40;1.10;;;13.50;99.90;;;;;;5091474;28;20039;-86
2021/08/03 04:44:11;;;;;;;1.40;0.70;;;13.50;99.90;;;;;;5091173;28;20024;-86
2021/08/03 04:46:37;;;;;;;2.13;0.60;;;13.60;99.90;;;;;;5091448;28;20438;-85
2021/08/03 04:49:03;;;;;;;1.80;0.80;;;13.70;99.90;;;;;;5091447;28;20103;-86
2021/08/03 04:51:30;;;;;;;1.42;0.90;;;13.70;99.90;;;;;;5091451;28;20024;-86
2021/08/03 04:53:56;;;;;;;2.75;0.90;;;13.80;99.90;;;;;;5092868;28;20494;-86
2021/08/03 04:56:21;;;;;;;1.92;0.80;;;13.90;99.90;;;;;;5092872;28;20180;-87
2021/08/03 04:58:47;;;;;;;2.40;0.80;;;13.90;99.90;;;;;;5091431;28;20024;-86
2021/08/03 05:01:16;;;;;;;4.00;1.17;;;14.00;99.90;;;;;;5090262;28;20020;-86
2021/08/03 05:03:46;;;;;;;1.70;0.85;;;14.00;99.90;;;;;;5091329;28;20027;-85
2021/08/03 05:06:12;;;;;;;2.70;0.90;;;14.10;99.90;;;;;;5090947;28;20043;-86
2021/08/03 05:08:38;;;;;;;2.63;0.95;;;14.00;99.90;;;;;;5090542;28;20024;-86
2021/08/03 05:11:03;;;;;;;1.90;1.00;;;14.10;99.90;;;;;;5091012;28;20063;-86
2021/08/03 05:13:30;;;;;;;3.35;0.93;;;14.10;99.90;;;;;;5091159;28;20410;-86
2021/08/03 05:15:55;;;;;;;2.20;0.90;;;14.10;99.90;;;;;;5090716;28;20028;-85
2021/08/03 05:18:21;;;;;;;1.45;1.05;;;14.20;99.90;;;;;;5090232;28;20108;-85
2021/08/03 05:20:47;;;;;;;1.80;0.90;;;14.20;99.90;;;;;;5090466;28;20065;-86
2021/08/03 05:23:12;;;;;;;1.55;0.77;;;14.30;99.90;;;;;;5091221;28;20392;-86
2021/08/03 05:25:38;;;;;;;1.38;0.80;;;14.40;99.90;;;;;;5091028;28;20081;-85
2021/08/03 05:28:04;;;;;;;1.30;0.90;;;14.40;99.90;;;;;;5091365;28;20024;-86
2021/08/03 05:30:30;;;;;;;1.63;0.80;;;14.50;99.90;;;;;;5090910;28;20120;-86
2021/08/03 05:32:55;;;;;;;2.90;1.20;;;14.50;99.90;;;;;;5084202;28;20024;-87
2021/08/03 05:35:24;;;;;;;2.03;1.02;;;14.50;99.90;;;;;;5079111;28;20020;-87
2021/08/03 05:37:51;;;;;;;2.17;1.10;;;14.50;99.90;;;;;;5092413;28;20036;-86
2021/08/03 05:40:20;;;;;;;2.28;1.00;;;14.50;99.90;;;;;;5091985;28;20035;-87
2021/08/03 05:42:47;;;;;;;2.88;0.90;;;14.60;99.90;;;;;;5092468;28;20024;-86
2021/08/03 05:45:13;;;;;;;3.20;1.20;;;14.60;99.90;;;;;;5081915;28;20024;-86
2021/08/03 05:47:39;;;;;;;2.58;0.90;;;14.60;99.90;;;;;;5083133;28;20101;-87
2021/08/03 05:50:06;;;;;;;2.60;0.98;;;14.60;99.90;;;;;;5075626;28;20020;-87
2021/08/03 05:52:32;;;;;;;2.28;0.90;;;14.70;99.90;;;;;;5076739;28;20116;-86
2021/08/03 05:54:58;;;;;;;2.30;1.05;;;14.70;99.90;;;;;;5088068;28;20071;-86
2021/08/03 05:57:24;;;;;;;1.88;1.00;;;14.70;99.90;;;;;;5081106;28;20089;-86
2021/08/03 05:59:49;;;;;;;2.17;1.00;;;14.70;99.90;;;;;;5092111;28;20081;-86
2021/08/03 06:02:15;;;;;;;2.90;1.50;;;14.70;99.90;;;;;;5075780;28;20111;-86
2021/08/03 06:04:41;;;;;;;1.85;1.13;;;14.70;99.90;;;;;;5090733;28;20501;-87
2021/08/03 06:07:09;;;;;;;2.42;1.30;;;14.70;99.90;;;;;;5091267;28;20032;-87
2021/08/03 06:09:36;;;;;;;1.83;1.20;;;14.70;99.90;;;;;;5089604;28;20039;-87
2021/08/03 06:12:03;;;;;;;3.25;1.42;;;14.80;99.90;;;;;;5078879;28;20028;-86
2021/08/03 06:14:40;;;;;;;2.83;1.13;;;14.80;99.90;;;;;;5090399;28;20020;-86
2021/08/03 06:17:08;;;;;;;1.77;1.00;;;14.80;99.90;;;;;;5091494;28;20052;-86
2021/08/03 06:19:44;;;;;;;3.50;1.33;;;14.80;99.90;;;;;;5080984;28;20016;-87
2021/08/03 06:22:10;;;;;;;4.40;1.20;;;14.90;99.90;;;;;;5087196;28;20044;-87
2021/08/03 06:24:39;;;;;;;3.30;1.42;;;14.90;99.90;;;;;;5080606;28;20020;-86
2021/08/03 06:27:10;;;;;;;2.70;1.17;;;14.90;99.90;;;;;;5058155;28;20021;-86
2021/08/03 06:29:38;;;;;;;2.22;1.38;;;14.90;99.90;;;;;;5072979;28;20461;-87
2021/08/03 06:32:04;;;;;;;3.13;1.50;;;15.00;99.90;;;;;;5071512;28;20032;-86
2021/08/03 06:34:32;;;;;;;2.67;1.52;;;15.00;99.90;;;;;;5089300;28;20467;-87
2021/08/03 06:36:58;;;;;;;4.40;1.50;;;15.10;99.90;;;;;;5089198;28;20502;-87
2021/08/03 06:39:24;;;;;;;2.47;1.38;;;15.20;99.90;;;;;;5091301;28;20087;-86
2021/08/03 06:41:54;;;;;;;2.63;1.23;;;15.20;99.90;;;;;;5078945;28;20053;-86
2021/08/03 06:44:30;;;;;;;2.33;1.30;;;15.30;99.90;;;;;;5087703;28;20016;-85
2021/08/03 06:47:00;;;;;;;2.50;1.30;;;15.40;99.90;;;;;;5076299;28;20043;-87
2021/08/03 06:49:31;;;;;;;1.75;1.20;;;15.50;99.90;;;;;;5074375;28;20021;-87
2021/08/03 06:51:58;;;;;;;1.88;1.10;;;15.60;99.90;;;;;;5077870;28;20016;-87
2021/08/03 06:54:29;;;;;;;3.05;1.48;;;15.70;99.90;;;;;;5081093;28;20035;-87
2021/08/03 06:57:06;;;;;;;3.08;1.50;;;15.80;99.90;;;;;;5091325;28;20700;-88
2021/08/03 06:59:35;;;;;;;3.78;1.80;;;15.90;99.90;;;;;;5091407;28;20023;-87
2021/08/03 07:02:08;;;;;;;4.15;1.98;;;15.90;99.90;;;;;;5091505;28;20114;-87
2021/08/03 07:05:11;;;;;;;4.90;1.75;;;16.00;99.90;;;;;;5056722;28;20036;-87
2021/08/03 07:07:37;;;;;;;3.97;1.95;;;16.00;99.90;;;;;;5020382;28;20032;-89
2021/08/03 07:10:05;;;;;;;4.43;1.92;;;16.00;99.90;;;;;;5085172;28;20108;-88
2021/08/03 07:12:31;;;;;;;3.40;2.00;;;16.00;99.90;;;;;;5074587;28;20020;-89
2021/08/03 07:14:57;;;;;;;3.95;2.20;;;16.10;99.90;;;;;;5085712;28;20025;-89
2021/08/03 07:17:29;;;;;;;3.05;1.80;;;16.10;99.90;;;;;;5079696;28;20059;-89
2021/08/03 07:19:58;;;;;;;4.65;2.80;;;16.20;99.90;;;;;;5091526;28;20027;-89
2021/08/03 07:22:24;;;;;;;4.65;2.70;;;16.30;99.90;;;;;;5075931;28;20017;-89
2021/08/03 07:24:53;;;;;;;3.83;2.47;;;16.30;99.90;;;;;;5088925;28;20024;-89
2021/08/03 07:27:19;;;;;;;4.53;3.10;;;16.30;99.90;;;;;;5084610;28;20028;-88
2021/08/03 07:29:45;;;;;;;5.22;3.50;;;16.30;99.90;;;;;;5095026;28;20028;-89
2021/08/03 07:32:14;;;;;;;5.80;3.63;;;16.40;99.90;;;;;;5079484;28;20057;-89
2021/08/03 07:34:43;;;;;;;4.97;2.88;;;16.40;99.90;;;;;;5091059;28;20456;-90
2021/08/03 07:37:10;;;;;;;4.53;3.10;;;16.40;99.90;;;;;;5094249;28;20418;-89
2021/08/03 07:39:36;;;;;;;6.70;3.72;;;16.40;99.90;;;;;;5077930;28;20024;-89
2021/08/03 07:42:03;;;;;;;5.00;3.72;;;16.50;99.90;;;;;;5080627;28;20058;-89
2021/08/03 07:44:29;;;;;;;7.10;4.50;;;16.60;99.90;;;;;;5090910;28;20016;-89
2021/08/03 07:46:55;;;;;;;7.05;4.60;;;16.60;99.90;;;;;;5059324;28;20090;-89
2021/08/03 07:49:21;;;;;;;8.15;5.20;;;16.70;99.90;;;;;;5084270;28;20047;-89
2021/08/03 07:51:47;;;;;;;8.07;5.18;;;16.80;99.90;;;;;;5082418;28;20028;-90
2021/08/03 07:54:15;;;;;;;7.50;5.85;;;16.90;99.90;;;;;;5089906;28;20084;-89
2021/08/03 07:56:41;;;;;;;7.82;6.20;;;17.00;99.90;;;;;;5077409;28;20027;-89
2021/08/03 07:59:12;;;;;;;10.15;6.88;;;17.00;99.90;;;;;;5094522;28;20020;-89
2021/08/03 08:01:39;;;;;;;10.98;8.65;;;17.00;99.90;;;;;;5084415;28;20039;-89
2021/08/03 08:04:06;;;;;;;10.25;7.57;;;17.00;99.90;;;;;;5088768;28;20115;-89
2021/08/03 08:06:32;;;;;;;10.82;8.60;;;17.00;99.90;;;;;;5073064;28;20047;-89
2021/08/03 08:09:00;;;;;;;10.13;7.90;;;17.10;99.90;;;;;;5077265;28;20028;-90
2021/08/03 08:11:26;;;;;;;9.82;7.47;;;17.10;99.90;;;;;;5093076;28;20056;-88
2021/08/03 08:13:53;;;;;;;9.57;7.60;;;17.20;99.90;;;;;;5093528;28;20090;-88
2021/08/03 08:16:19;;;;;;;9.63;7.05;;;17.30;99.90;;;;;;5077124;28;20073;-88
2021/08/03 08:18:44;;;;;;;9.52;7.95;;;17.40;99.90;;;;;;5093687;28;20399;-89
2021/08/03 08:21:10;;;;;;;10.05;6.95;;;17.50;99.90;;;;;;5077340;28;20024;-88
2021/08/03 08:23:37;;;;;;;13.65;8.07;;;17.50;99.90;;;;;;5083114;28;20123;-89
2021/08/03 08:26:03;;;;;;;11.38;8.13;;;17.50;99.90;;;;;;5089091;28;20027;-89
2021/08/03 08:28:29;;;;;;;8.38;7.07;;;17.50;99.90;;;;;;5092212;28;20028;-87
2021/08/03 08:30:55;;;;;;;9.15;7.28;;;17.60;99.90;;;;;;5078533;28;20026;-89
2021/08/03 08:33:21;;;;;;;12.35;8.25;;;17.70;99.90;;;;;;5084771;28;20013;-87
2021/08/03 08:35:48;;;;;;;10.60;6.85;;;17.80;99.90;;;;;;5084927;28;20031;-87
2021/08/03 08:38:14;;;;;;;10.45;7.30;;;17.90;99.90;;;;;;5093599;28;20131;-88
2021/08/03 08:40:42;;;;;;;9.57;6.80;;;17.90;99.90;;;;;;5076540;28;20016;-88
2021/08/03 08:43:11;;;;;;;10.57;6.88;;;18.00;99.90;;;;;;5069804;28;20025;-88
2021/08/03 08:45:37;;;;;;;10.93;7.28;;;18.10;99.90;;;;;;5083711;28;20479;-87
2021/08/03 08:48:03;;;;;;;9.10;6.60;;;18.20;99.90;;;;;;5093347;28;20097;-89
2021/08/03 08:50:30;;;;;;;9.52;6.90;;;18.30;99.90;;;;;;5077003;28;20468;-88
2021/08/03 08:52:56;;;;;;;9.95;6.35;;;18.40;99.90;;;;;;5070796;28;20033;-89
2021/08/03 08:55:23;;;;;;;7.15;5.90;;;18.50;99.90;;;;;;5076134;28;20024;-88
2021/08/03 08:57:51;;;;;;;8.68;5.97;;;18.70;99.90;;;;;;5085506;28;20067;-89
2021/08/03 09:00:19;;;;;;;9.90;5.80;;;18.80;99.90;;;;;;5093190;28;20024;-88
2021/08/03 09:02:53;;;;;;;9.55;6.70;;;18.80;99.90;;;;;;5076546;28;20092;-89
2021/08/03 09:05:33;;;;;;;9.65;6.00;;;18.90;99.90;;;;;;5089671;28;20501;-88
2021/08/03 09:08:02;;;;;;;10.05;6.60;;;19.00;99.90;;;;;;5092999;28;20141;-88
2021/08/03 09:10:38;;;;;;;8.35;6.38;;;19.10;99.90;;;;;;5076039;28;20546;-89
2021/08/03 09:13:12;;;;;;;9.18;6.82;;;19.40;99.90;;;;;;5086294;28;20025;-89
2021/08/03 09:15:55;;;;;;;9.48;6.90;;;19.50;99.90;;;;;;5085434;28;20456;-89
2021/08/03 09:18:36;;;;;;;7.03;5.97;;;19.60;99.90;;;;;;5088174;28;20040;-88
2021/08/03 09:21:02;;;;;;;8.27;6.78;;;19.60;99.90;;;;;;5092963;28;20050;-89
2021/08/03 09:24:08;;;;;;;10.02;5.88;;;19.70;99.90;;;;;;5082834;28;20025;-88
2021/08/03 09:26:49;;;;;;;7.57;5.35;;;19.70;99.90;;;;;;4996522;28;20061;-89
2021/08/03 09:29:17;;;;;;;9.20;7.22;;;19.80;99.90;;;;;;4994127;28;20049;-89
2021/08/03 09:31:56;;;;;;;9.90;7.35;;;19.80;99.90;;;;;;5059753;28;20036;-88
2021/08/03 09:34:22;;;;;;;7.88;5.55;;;19.90;99.90;;;;;;5058989;28;20029;-88
2021/08/03 09:36:53;;;;;;;8.77;5.20;;;20.10;99.90;;;;;;5091873;28;20024;-88
2021/08/03 09:39:43;;;;;;;8.27;5.55;;;20.20;99.90;;;;;;5092383;28;20026;-88
2021/08/03 09:42:22;;;;;;;9.52;6.70;;;20.20;99.90;;;;;;5077115;28;20484;-87
2021/08/03 09:44:55;;;;;;;7.60;5.75;;;20.10;99.90;;;;;;5056507;28;20021;-88
2021/08/03 09:47:22;;;;;;;8.32;5.68;;;20.00;99.90;;;;;;5080349;28;20038;-87
2021/08/03 09:49:54;;;;;;;7.30;5.20;;;19.90;99.90;;;;;;5079829;28;20027;-87
2021/08/03 09:52:26;;;;;;;9.27;5.88;;;19.90;99.90;;;;;;5090168;28;20020;-88
2021/08/03 09:55:18;;;;;;;9.18;6.20;;;19.90;99.90;;;;;;5073175;28;20015;-88
2021/08/03 09:57:45;;;;;;;9.23;5.20;;;19.90;99.90;;;;;;5081629;28;20039;-87
2021/08/03 10:00:35;;;;;;;8.70;5.72;;;19.90;99.90;;;;;;5089719;28;20123;-87
2021/08/03 10:03:04;;;;;;;8.07;5.75;;;20.00;99.90;;;;;;5076015;28;20375;-87
2021/08/03 10:05:31;;;;;;;7.30;5.72;;;20.00;99.90;;;;;;5086912;28;20043;-88
2021/08/03 10:07:58;;;;;;;10.77;7.18;;;20.10;99.90;;;;;;5093771;28;20115;-87
2021/08/03 10:10:24;;;;;;;10.05;7.20;;;20.30;99.90;;;;;;5090731;28;20032;-88
2021/08/03 10:12:50;;;;;;;9.93;7.82;;;20.30;99.90;;;;;;5071360;28;20078;-88
2021/08/03 10:15:17;;;;;;;7.57;6.28;;;20.40;99.90;;;;;;5082920;28;20517;-87
2021/08/03 10:17:43;;;;;;;9.05;6.22;;;20.50;99.90;;;;;;5083724;28;20396;-87
2021/08/03 10:20:12;;;;;;;8.90;6.32;;;20.70;99.90;;;;;;5072618;28;20035;-87
2021/08/03 10:23:01;;;;;;;14.75;9.93;;;20.90;99.90;;;;;;5086041;28;20562;-90
2021/08/03 10:25:34;;;;;;;10.77;8.27;;;21.10;99.90;;;;;;5086640;28;20028;-89
2021/08/03 10:28:22;;;;;;;18.45;15.93;;;21.30;99.90;;;;;;5086231;28;20119;-89
2021/08/03 10:30:49;;;;;;;15.73;11.70;;;21.30;99.90;;;;;;5085781;28;20040;-90
2021/08/03 10:33:42;;;;;;;12.70;10.05;;;21.20;99.90;;;;;;5070725;28;20111;-85
2021/08/03 10:36:28;;;;;;;12.07;9.88;;;21.30;99.90;;;;;;5087816;28;20027;-89
2021/08/03 10:39:14;;;;;;;14.30;11.60;;;21.40;99.90;;;;;;5088436;28;20032;-88
2021/08/03 10:41:58;;;;;;;11.63;8.88;;;21.40;99.90;;;;;;5089231;28;20090;-88
2021/08/03 10:44:42;;;;;;;12.15;9.63;;;21.40;99.90;;;;;;5087220;28;20028;-87
2021/08/03 10:47:39;;;;;;;10.07;8.97;;;21.50;99.90;;;;;;5083102;28;20020;-89
2021/08/03 10:50:12;;;;;;;10.93;9.20;;;21.50;99.90;;;;;;5084645;28;20077;-88
2021/08/03 10:52:52;;;;;;;10.10;8.38;;;21.40;99.90;;;;;;5090854;28;20110;-87
2021/08/03 10:55:38;;;;;;;10.80;8.82;;;21.50;99.90;;;;;;5089907;28;20046;-87
2021/08/03 10:58:10;;;;;;;12.85;10.35;;;21.50;99.90;;;;;;5081200;28;20473;-88
2021/08/03 11:00:44;;;;;;;12.93;11.05;;;21.40;99.90;;;;;;5093028;28;20032;-87
2021/08/03 11:03:32;;;;;;;20.92;18.33;;;21.40;99.90;;;;;;5087313;28;20115;-87
2021/08/03 11:06:04;;;;;;;17.10;15.13;;;21.30;99.90;;;;;;5093402;28;20380;-87
2021/08/03 11:08:41;;;;;;;19.42;16.65;;;21.10;99.90;;;;;;5090715;28;20027;-86
2021/08/03 11:11:27;;;;;;;21.17;18.85;;;21.00;99.90;;;;;;5092678;28;20360;-87
2021/08/03 11:13:56;;;;;;;19.67;17.63;;;20.90;99.90;;;;;;5080154;28;20032;-87
2021/08/03 11:16:24;;;;;;;22.63;17.70;;;20.80;99.90;;;;;;5074305;28;20035;-88
2021/08/03 11:18:54;;;;;;;16.52;14.57;;;20.60;99.90;;;;;;5094283;28;20451;-87
2021/08/03 11:21:22;;;;;;;18.60;16.15;;;20.60;99.90;;;;;;5068424;28;20369;-87
2021/08/03 11:24:17;;;;;;;20.80;18.58;;;20.70;99.90;;;;;;5084337;28;20028;-87
2021/08/03 11:26:53;;;;;;;18.20;16.30;;;20.70;99.90;;;;;;5077926;28;20109;-87
2021/08/03 11:29:25;;;;;;;19.05;17.05;;;20.70;99.90;;;;;;5084265;28;20082;-87
2021/08/03 11:32:03;;;;;;;15.88;14.13;;;20.70;99.90;;;;;;5086712;28;20051;-87
2021/08/03 11:34:40;;;;;;;15.10;12.13;;;20.80;99.90;;;;;;5092351;28;20069;-87
2021/08/03 11:37:08;;;;;;;17.50;15.77;;;20.90;99.90;;;;;;5093695;28;20471;-87
2021/08/03 11:39:55;;;;;;;14.60;13.02;;;20.90;99.90;;;;;;5082448;28;20025;-86
2021/08/03 11:42:33;;;;;;;19.75;15.13;;;20.90;99.90;;;;;;5090311;28;20605;-87
2021/08/03 11:45:13;;;;;;;14.65;13.20;;;20.90;99.90;;;;;;5093157;28;20028;-87
2021/08/03 11:47:53;;;;;;;16.13;14.43;;;20.90;99.90;;;;;;5093538;28;20039;-88
2021/08/03 11:50:34;;;;;;;15.85;14.25;;;20.90;99.90;;;;;;5094034;28;20027;-86
2021/08/03 11:53:20;;;;;;;13.70;11.63;;;20.90;99.90;;;;;;5088164;28;20036;-87
2021/08/03 11:55:49;;;;;;;11.52;10.30;;;20.90;99.90;;;;;;5085025;28;20115;-87
2021/08/03 11:58:23;;;;;;;17.67;15.77;;;21.00;99.90;;;;;;5074800;28;20075;-88
2021/08/03 12:00:54;;;;;;;16.08;14.25;;;21.00;99.90;;;;;;5077183;28;20016;-88
2021/08/03 12:03:36;;;;;;;15.07;13.50;;;20.90;99.90;;;;;;5085019;28;20016;-88
2021/08/03 12:06:06;;;;;;;15.20;13.05;;;20.90;99.90;;;;;;5087649;28;20039;-88
2021/08/03 12:08:42;;;;;;;14.70;13.20;;;20.90;99.90;;;;;;5092731;28;20024;-89
2021/08/03 12:11:08;;;;;;;17.23;15.52;;;21.00;99.90;;;;;;5092868;28;20028;-87
2021/08/03 12:13:36;;;;;;;16.25;14.55;;;20.90;99.90;;;;;;5082183;28;20028;-86
2021/08/03 12:16:04;;;;;;;16.85;14.95;;;20.90;99.90;;;;;;5073113;28;20035;-87
2021/08/03 12:18:43;;;;;;;15.52;14.02;;;20.90;99.90;;;;;;5090670;28;20075;-87
2021/08/03 12:21:10;;;;;;;14.68;12.25;;;21.00;99.90;;;;;;5086985;28;20027;-89
2021/08/03 12:23:39;;;;;;;14.93;13.43;;;21.10;99.90;;;;;;5085048;28;20376;-87
2021/08/03 12:26:24;;;;;;;13.77;12.07;;;21.10;99.90;;;;;;5092918;28;20121;-89
2021/08/03 12:28:50;;;;;;;11.73;10.27;;;21.20;99.90;;;;;;5073199;28;20036;-88
2021/08/03 12:31:20;;;;;;;15.10;13.45;;;21.40;99.90;;;;;;5080662;28;20030;-88
2021/08/03 12:33:47;;;;;;;15.57;12.95;;;21.40;99.90;;;;;;5092648;28;20051;-88
2021/08/03 12:36:19;;;;;;;11.68;10.32;;;21.40;99.90;;;;;;5087983;28;20020;-89
2021/08/03 12:39:20;;;;;;;11.18;10.07;;;21.40;99.90;;;;;;5090125;28;20024;-89
2021/08/03 12:42:22;;;;;;;11.57;9.70;;;21.40;99.90;;;;;;5058569;28;20036;-89
2021/08/03 12:44:58;;;;;;;11.18;8.23;;;21.50;99.90;;;;;;5077093;28;20008;-87
2021/08/03 12:47:28;;;;;;;9.77;7.85;;;21.50;99.90;;;;;;5064597;28;20495;-86
2021/08/03 12:50:18;;;;;;;9.93;8.93;;;21.60;99.90;;;;;;5086057;28;20033;-87
2021/08/03 12:52:53;;;;;;;10.18;8.68;;;21.60;99.90;;;;;;5058353;28;20136;-88
2021/08/03 12:55:32;;;;;;;11.32;10.13;;;21.60;99.90;;;;;;5070693;28;20518;-88
2021/08/03 12:58:00;;;;;;;10.90;9.70;;;21.50;99.90;;;;;;5085694;28;20028;-88
2021/08/03 13:00:32;;;;;;;11.75;10.43;;;21.40;99.90;;;;;;5073307;28;20032;-88
2021/08/03 13:03:01;;;;;;;10.87;9.40;;;21.30;99.90;;;;;;5082835;28;20157;-88
2021/08/03 13:05:28;;;;;;;14.45;10.25;;;21.20;99.90;;;;;;5076422;28;20328;-88
2021/08/03 13:07:55;;;;;;;13.70;11.45;;;21.10;99.90;;;;;;5081197;28;20106;-88